Time;durP1;ratioP1;P1;durP2;ratioP2;P2;SDS_P1;SDS_P2;PMS_P1;PMS_P2;Temp;Humidity;BMP_temperature;BMP_pressure;BME280_temperature;BME280_humidity;BME280_pressure;Samples;Min_cycle;Max_cycle;Signal;HPM_P1;HPM_P2
2022/03/29 00:01:32;;;;;;;30.30;19.05;;;;;;;;;;5025709;28;20062;-79
2022/03/29 00:03:57;;;;;;;29.92;17.27;;;;;;;;;;5013445;28;20064;-79
2022/03/29 00:06:23;;;;;;;31.83;18.50;;;;;;;;;;5017280;28;20139;-79
2022/03/29 00:08:49;;;;;;;29.60;18.73;;;;;;;;;;5029509;28;20448;-79
2022/03/29 00:11:17;;;;;;;27.63;17.55;;;;;;;;;;5009676;28;20037;-79
2022/03/29 00:13:42;;;;;;;28.40;18.15;;;;;;;;;;5029117;28;20044;-79
2022/03/29 00:16:08;;;;;;;25.58;16.60;;;;;;;;;;5038819;28;20479;-79
2022/03/29 00:18:34;;;;;;;25.65;16.60;;;;;;;;;;5037872;28;20037;-79
2022/03/29 00:21:00;;;;;;;27.95;16.40;;;;;;;;;;5012372;28;20037;-79
2022/03/29 00:23:25;;;;;;;26.73;17.73;;;;;;;;;;5016115;28;20503;-79
2022/03/29 00:25:51;;;;;;;27.67;16.35;;;;;;;;;;5026330;28;20041;-79
2022/03/29 00:28:17;;;;;;;24.63;15.48;;;;;;;;;;5028536;28;20098;-79
2022/03/29 00:30:42;;;;;;;29.55;17.30;;;;;;;;;;5045749;28;20494;-79
2022/03/29 00:33:08;;;;;;;27.73;16.88;;;;;;;;;;5029517;28;20087;-79
2022/03/29 00:35:34;;;;;;;28.02;16.73;;;;;;;;;;5046841;28;20071;-79
2022/03/29 00:38:00;;;;;;;33.85;17.92;;;;;;;;;;5028379;28;20114;-79
2022/03/29 00:40:27;;;;;;;27.60;16.95;;;;;;;;;;5028940;28;20036;-79
2022/03/29 00:42:52;;;;;;;27.67;16.17;;;;;;;;;;5029059;28;20050;-79
2022/03/29 00:45:18;;;;;;;27.17;16.73;;;;;;;;;;5045865;28;20040;-79
2022/03/29 00:47:44;;;;;;;23.88;16.25;;;;;;;;;;5029991;28;20909;-79
2022/03/29 00:50:10;;;;;;;26.15;16.67;;;;;;;;;;5027237;28;20037;-79
2022/03/29 00:52:37;;;;;;;25.52;15.85;;;;;;;;;;5043197;28;20032;-79
2022/03/29 00:55:05;;;;;;;25.58;15.88;;;;;;;;;;5041416;28;20512;-79
2022/03/29 00:57:34;;;;;;;27.23;16.65;;;;;;;;;;5027481;28;20386;-79
2022/03/29 01:00:00;;;;;;;24.63;15.30;;;;;;;;;;5024924;28;20123;-79
2022/03/29 01:02:26;;;;;;;24.35;15.75;;;;;;;;;;5040521;28;20100;-79
2022/03/29 01:04:51;;;;;;;28.45;15.75;;;;;;;;;;5023689;28;20044;-79
2022/03/29 01:07:17;;;;;;;24.10;15.35;;;;;;;;;;5042129;28;20474;-79
2022/03/29 01:09:43;;;;;;;26.88;15.50;;;;;;;;;;5017884;28;20861;-79
2022/03/29 01:12:09;;;;;;;23.13;14.98;;;;;;;;;;5025971;28;20033;-79
2022/03/29 01:14:35;;;;;;;25.27;15.38;;;;;;;;;;5024537;28;20047;-79
2022/03/29 01:19:47;;;;;;;24.45;15.30;;;;;;;;;;5045341;28;20305;-79
2022/03/29 01:22:13;;;;;;;26.02;15.43;;;;;;;;;;5024735;28;20050;-79
2022/03/29 01:24:46;;;;;;;22.98;14.98;;;;;;;;;;5038539;28;20072;-79
2022/03/29 01:27:12;;;;;;;24.13;14.82;;;;;;;;;;5028249;28;20520;-79
2022/03/29 01:29:39;;;;;;;25.67;15.32;;;;;;;;;;5009846;28;20037;-79
2022/03/29 01:32:08;;;;;;;23.65;15.80;;;;;;;;;;5024789;28;20435;-79
2022/03/29 01:34:35;;;;;;;23.23;14.73;;;;;;;;;;5027787;28;20397;-79
2022/03/29 01:37:03;;;;;;;25.95;15.65;;;;;;;;;;5024607;28;20356;-79
2022/03/29 01:39:29;;;;;;;25.67;16.67;;;;;;;;;;5026351;28;20054;-79
2022/03/29 01:41:55;;;;;;;23.98;14.52;;;;;;;;;;5058891;28;20174;-79
2022/03/29 01:44:20;;;;;;;25.40;14.95;;;;;;;;;;5041306;28;20041;-79
2022/03/29 01:46:46;;;;;;;25.25;14.98;;;;;;;;;;5037263;28;20072;-79
2022/03/29 01:49:13;;;;;;;25.40;14.35;;;;;;;;;;5024057;28;20046;-79
2022/03/29 01:51:39;;;;;;;24.02;15.50;;;;;;;;;;5025498;28;20040;-78
2022/03/29 01:54:05;;;;;;;26.65;15.35;;;;;;;;;;5017225;28;20114;-79
2022/03/29 01:56:32;;;;;;;24.05;15.18;;;;;;;;;;5015653;28;20445;-79
2022/03/29 01:58:59;;;;;;;22.73;15.23;;;;;;;;;;5025281;28;20066;-78
2022/03/29 02:01:25;;;;;;;25.50;15.02;;;;;;;;;;5048028;28;20047;-79
2022/03/29 02:03:50;;;;;;;24.42;15.90;;;;;;;;;;5046394;28;20036;-79
2022/03/29 02:06:16;;;;;;;25.70;14.32;;;;;;;;;;5058325;28;20048;-79
2022/03/29 02:08:42;;;;;;;24.05;15.40;;;;;;;;;;5039867;28;20049;-78
2022/03/29 02:11:08;;;;;;;27.27;16.00;;;;;;;;;;5063242;28;20044;-79
2022/03/29 02:13:34;;;;;;;25.33;15.75;;;;;;;;;;5037220;28;20463;-79
2022/03/29 02:16:00;;;;;;;23.00;15.95;;;;;;;;;;5024031;28;20040;-79
2022/03/29 02:18:26;;;;;;;26.88;15.90;;;;;;;;;;5032514;28;20040;-78
2022/03/29 02:20:52;;;;;;;25.25;15.40;;;;;;;;;;5044975;28;20028;-79
2022/03/29 02:23:17;;;;;;;26.95;15.82;;;;;;;;;;5031322;28;20521;-78
2022/03/29 02:25:47;;;;;;;25.92;16.08;;;;;;;;;;5019445;28;20117;-78
2022/03/29 02:28:13;;;;;;;22.98;14.82;;;;;;;;;;5042551;28;20047;-78
2022/03/29 02:30:39;;;;;;;25.67;15.95;;;;;;;;;;5014489;28;20074;-78
2022/03/29 02:33:05;;;;;;;26.17;16.02;;;;;;;;;;5024078;28;20037;-78
2022/03/29 02:35:31;;;;;;;25.77;16.20;;;;;;;;;;5045889;28;20043;-79
2022/03/29 02:37:57;;;;;;;27.05;16.08;;;;;;;;;;5039047;28;20052;-79
2022/03/29 02:40:23;;;;;;;22.83;14.95;;;;;;;;;;5046041;28;20029;-79
2022/03/29 02:42:55;;;;;;;26.38;16.27;;;;;;;;;;5006501;28;20116;-79
2022/03/29 02:45:23;;;;;;;25.95;15.77;;;;;;;;;;5059720;28;20509;-79
2022/03/29 02:47:53;;;;;;;27.20;16.45;;;;;;;;;;5028986;28;20060;-79
2022/03/29 02:50:20;;;;;;;30.27;16.75;;;;;;;;;;5036972;28;20381;-79
2022/03/29 02:52:57;;;;;;;27.33;16.98;;;;;;;;;;5031937;28;20041;-79
2022/03/29 02:55:28;;;;;;;28.25;16.95;;;;;;;;;;5037905;28;20036;-79
2022/03/29 02:57:54;;;;;;;28.73;17.52;;;;;;;;;;5016449;28;20094;-79
2022/03/29 03:00:20;;;;;;;26.40;17.05;;;;;;;;;;5032427;28;20119;-79
2022/03/29 03:02:50;;;;;;;27.42;17.45;;;;;;;;;;5030717;28;20585;-79
2022/03/29 03:05:16;;;;;;;30.02;17.63;;;;;;;;;;5030337;28;20052;-78
2022/03/29 03:07:44;;;;;;;26.73;17.88;;;;;;;;;;5040219;28;20047;-78
2022/03/29 03:10:11;;;;;;;27.23;17.80;;;;;;;;;;5039208;28;20061;-79
2022/03/29 03:12:41;;;;;;;31.95;18.05;;;;;;;;;;5045295;28;20342;-78
2022/03/29 03:15:08;;;;;;;29.73;18.67;;;;;;;;;;5027738;28;20064;-79
2022/03/29 03:17:34;;;;;;;33.40;20.58;;;;;;;;;;5044542;28;20044;-79
2022/03/29 03:19:59;;;;;;;30.33;20.33;;;;;;;;;;5028047;28;20033;-79
2022/03/29 03:22:25;;;;;;;36.60;21.90;;;;;;;;;;5031714;28;20041;-79
2022/03/29 03:24:51;;;;;;;35.17;22.02;;;;;;;;;;5009850;28;20043;-79
2022/03/29 03:27:17;;;;;;;40.45;23.13;;;;;;;;;;5011448;28;20045;-79
2022/03/29 03:29:44;;;;;;;39.95;22.98;;;;;;;;;;5027373;28;20055;-79
2022/03/29 03:32:10;;;;;;;39.53;23.42;;;;;;;;;;5005474;28;20041;-78
2022/03/29 03:34:36;;;;;;;34.15;21.98;;;;;;;;;;5022064;28;20041;-78
2022/03/29 03:37:03;;;;;;;40.78;24.30;;;;;;;;;;5039661;28;20553;-78
2022/03/29 03:39:29;;;;;;;39.88;24.90;;;;;;;;;;5065922;28;20361;-79
2022/03/29 03:41:55;;;;;;;38.08;22.98;;;;;;;;;;5022395;28;20040;-79
2022/03/29 03:44:22;;;;;;;39.90;24.42;;;;;;;;;;5029264;28;20346;-79
2022/03/29 03:46:48;;;;;;;36.03;23.25;;;;;;;;;;5014678;28;20424;-78
2022/03/29 03:49:14;;;;;;;37.88;23.27;;;;;;;;;;5040003;28;20068;-79
2022/03/29 03:51:39;;;;;;;38.67;22.25;;;;;;;;;;5009757;28;20073;-78
2022/03/29 03:54:05;;;;;;;31.33;20.98;;;;;;;;;;5016711;28;20037;-78
2022/03/29 03:56:31;;;;;;;31.00;20.20;;;;;;;;;;5030433;28;20132;-79
2022/03/29 03:58:56;;;;;;;32.42;20.05;;;;;;;;;;5054374;28;20099;-78
2022/03/29 04:01:23;;;;;;;35.35;20.67;;;;;;;;;;5031451;28;20041;-78
2022/03/29 04:03:49;;;;;;;30.70;19.77;;;;;;;;;;5006765;28;20111;-78
2022/03/29 04:06:14;;;;;;;33.90;20.13;;;;;;;;;;5017936;28;20064;-78
2022/03/29 04:08:40;;;;;;;30.30;19.42;;;;;;;;;;5014805;28;20149;-78
2022/03/29 04:11:06;;;;;;;35.33;19.67;;;;;;;;;;5005899;28;20037;-78
2022/03/29 04:13:34;;;;;;;31.10;19.23;;;;;;;;;;5019045;28;20094;-79
2022/03/29 04:16:00;;;;;;;34.40;19.60;;;;;;;;;;5032897;28;20043;-79
2022/03/29 04:18:25;;;;;;;35.22;20.55;;;;;;;;;;5028655;28;20161;-78
2022/03/29 04:20:53;;;;;;;33.38;19.52;;;;;;;;;;5032236;28;20124;-79
2022/03/29 04:23:18;;;;;;;28.67;18.88;;;;;;;;;;5026843;28;20044;-78
2022/03/29 04:25:44;;;;;;;31.45;19.88;;;;;;;;;;5062723;28;20494;-78
2022/03/29 04:28:10;;;;;;;30.30;18.58;;;;;;;;;;5033236;28;20312;-78
2022/03/29 04:30:35;;;;;;;33.22;19.88;;;;;;;;;;5026962;28;20033;-78
2022/03/29 04:33:01;;;;;;;31.75;19.73;;;;;;;;;;5029701;28;20067;-79
2022/03/29 04:35:27;;;;;;;31.92;19.27;;;;;;;;;;5012420;28;20029;-79
2022/03/29 04:37:53;;;;;;;32.33;18.55;;;;;;;;;;5022730;28;20124;-79
2022/03/29 04:40:20;;;;;;;33.70;19.25;;;;;;;;;;5021192;28;20572;-78
2022/03/29 04:42:47;;;;;;;32.88;19.88;;;;;;;;;;5037545;28;20037;-79
2022/03/29 04:45:14;;;;;;;35.13;21.25;;;;;;;;;;5038766;28;20091;-79
2022/03/29 04:47:41;;;;;;;35.65;20.73;;;;;;;;;;5021118;28;20033;-78
2022/03/29 04:50:08;;;;;;;37.03;20.17;;;;;;;;;;5017340;28;20044;-79
2022/03/29 04:52:34;;;;;;;36.85;21.27;;;;;;;;;;5020345;28;20054;-78
2022/03/29 04:55:00;;;;;;;33.15;21.05;;;;;;;;;;5019015;28;20064;-78
2022/03/29 04:57:26;;;;;;;34.50;20.77;;;;;;;;;;5036358;28;20497;-78
2022/03/29 04:59:52;;;;;;;33.70;20.52;;;;;;;;;;5016657;28;20113;-78
2022/03/29 05:02:18;;;;;;;30.77;19.67;;;;;;;;;;5020093;28;20033;-79
2022/03/29 05:04:44;;;;;;;34.50;21.33;;;;;;;;;;5020732;28;20524;-78
2022/03/29 05:07:10;;;;;;;34.88;21.40;;;;;;;;;;5039790;28;20365;-78
2022/03/29 05:09:36;;;;;;;34.08;20.45;;;;;;;;;;5021107;28;20037;-79
2022/03/29 05:12:02;;;;;;;35.15;21.27;;;;;;;;;;5041745;28;20041;-78
2022/03/29 05:14:28;;;;;;;34.75;20.40;;;;;;;;;;5035134;28;20033;-79
2022/03/29 05:16:54;;;;;;;34.08;21.98;;;;;;;;;;5031252;28;20128;-79
2022/03/29 05:19:19;;;;;;;36.05;21.15;;;;;;;;;;5042993;28;20036;-78
2022/03/29 05:21:45;;;;;;;33.65;20.65;;;;;;;;;;5026850;28;20042;-79
2022/03/29 05:24:11;;;;;;;34.63;20.80;;;;;;;;;;5025526;28;20461;-78
2022/03/29 05:26:37;;;;;;;39.05;21.48;;;;;;;;;;5048313;28;20041;-78
2022/03/29 05:29:02;;;;;;;41.40;21.92;;;;;;;;;;5048464;28;20126;-79
2022/03/29 05:31:29;;;;;;;35.05;21.02;;;;;;;;;;5045538;28;20653;-79
2022/03/29 05:33:54;;;;;;;36.17;20.45;;;;;;;;;;5031299;28;20574;-78
2022/03/29 05:36:20;;;;;;;39.28;22.77;;;;;;;;;;5056773;28;20068;-78
2022/03/29 05:38:51;;;;;;;38.97;20.77;;;;;;;;;;5064739;28;20107;-78
2022/03/29 05:41:21;;;;;;;36.97;21.63;;;;;;;;;;5031270;28;20140;-78
2022/03/29 05:43:48;;;;;;;32.88;20.98;;;;;;;;;;5022859;28;20505;-78
2022/03/29 05:48:59;;;;;;;32.83;21.02;;;;;;;;;;5045636;28;20306;-78
2022/03/29 05:51:26;;;;;;;33.20;21.30;;;;;;;;;;5020059;28;20068;-78
2022/03/29 05:53:53;;;;;;;36.80;21.27;;;;;;;;;;5027031;28;20074;-78
2022/03/29 05:56:19;;;;;;;33.75;21.67;;;;;;;;;;5044946;28;20037;-79
2022/03/29 05:58:45;;;;;;;35.70;20.63;;;;;;;;;;5047019;28;20047;-78
2022/03/29 06:01:11;;;;;;;31.65;21.00;;;;;;;;;;5027871;28;20560;-78
2022/03/29 06:03:36;;;;;;;35.15;20.90;;;;;;;;;;5041272;28;20051;-80
2022/03/29 06:06:05;;;;;;;34.53;21.25;;;;;;;;;;5045815;28;20029;-80
2022/03/29 06:08:32;;;;;;;36.40;21.52;;;;;;;;;;5020692;28;20037;-80
2022/03/29 06:10:58;;;;;;;37.30;22.90;;;;;;;;;;5007480;28;20037;-80
2022/03/29 06:13:25;;;;;;;34.33;20.65;;;;;;;;;;5011430;28;20510;-80
2022/03/29 06:15:51;;;;;;;38.05;21.20;;;;;;;;;;5056434;28;20656;-80
2022/03/29 06:18:16;;;;;;;33.33;20.02;;;;;;;;;;5024734;28;20037;-81
2022/03/29 06:20:42;;;;;;;37.50;20.80;;;;;;;;;;5013848;28;20073;-80
2022/03/29 06:23:08;;;;;;;35.92;19.50;;;;;;;;;;5006033;28;20042;-80
2022/03/29 06:25:35;;;;;;;31.73;19.88;;;;;;;;;;5030855;28;20041;-81
2022/03/29 06:28:01;;;;;;;33.63;18.75;;;;;;;;;;5018483;28;20045;-80
2022/03/29 06:30:27;;;;;;;34.75;20.08;;;;;;;;;;5050093;28;20102;-81
2022/03/29 06:32:54;;;;;;;35.65;19.40;;;;;;;;;;5034546;28;20106;-80
2022/03/29 06:35:24;;;;;;;36.00;20.02;;;;;;;;;;5036181;28;20037;-81
2022/03/29 06:37:51;;;;;;;35.20;19.45;;;;;;;;;;5052575;28;20062;-80
2022/03/29 06:40:16;;;;;;;40.50;20.98;;;;;;;;;;5051315;28;20036;-81
2022/03/29 06:42:42;;;;;;;36.03;19.60;;;;;;;;;;5016827;28;20043;-80
2022/03/29 06:45:09;;;;;;;36.47;20.23;;;;;;;;;;5027610;28;20061;-81
2022/03/29 06:47:34;;;;;;;42.40;21.13;;;;;;;;;;5033609;28;20055;-80
2022/03/29 06:50:01;;;;;;;37.88;20.73;;;;;;;;;;5010435;28;20033;-80
2022/03/29 06:52:28;;;;;;;41.03;19.77;;;;;;;;;;5021851;28;20032;-81
2022/03/29 06:54:54;;;;;;;39.90;21.15;;;;;;;;;;5040738;28;20044;-80
2022/03/29 06:57:20;;;;;;;35.25;20.05;;;;;;;;;;5012360;28;20493;-80
2022/03/29 06:59:46;;;;;;;37.53;20.98;;;;;;;;;;5022272;28;20089;-80
2022/03/29 07:02:11;;;;;;;36.22;21.95;;;;;;;;;;5033444;28;20041;-82
2022/03/29 07:04:37;;;;;;;43.75;24.27;;;;;;;;;;5034131;28;20589;-81
2022/03/29 07:07:04;;;;;;;37.05;20.15;;;;;;;;;;5025515;28;20136;-81
2022/03/29 07:12:14;;;;;;;38.95;20.15;;;;;;;;;;5061895;28;20055;-80
2022/03/29 07:14:40;;;;;;;36.17;20.65;;;;;;;;;;5049179;28;20036;-80
2022/03/29 07:17:10;;;;;;;38.72;20.85;;;;;;;;;;5032720;28;20036;-81
2022/03/29 07:19:36;;;;;;;36.63;20.05;;;;;;;;;;5049305;28;20251;-80
2022/03/29 07:22:02;;;;;;;36.22;19.30;;;;;;;;;;5044169;28;20048;-81
2022/03/29 07:24:28;;;;;;;37.35;20.60;;;;;;;;;;5039077;28;20422;-80
2022/03/29 07:26:54;;;;;;;35.78;20.15;;;;;;;;;;5037284;28;20067;-81
2022/03/29 07:29:20;;;;;;;33.53;18.90;;;;;;;;;;5040375;28;20060;-81
2022/03/29 07:31:45;;;;;;;35.03;18.45;;;;;;;;;;5059602;28;20447;-80
2022/03/29 07:34:11;;;;;;;34.15;18.45;;;;;;;;;;5028265;28;20059;-80
2022/03/29 07:36:38;;;;;;;35.30;19.25;;;;;;;;;;5032646;28;20045;-80
2022/03/29 07:39:04;;;;;;;33.40;18.33;;;;;;;;;;5045333;28;20074;-80
2022/03/29 07:41:30;;;;;;;33.70;18.58;;;;;;;;;;5015055;28;20040;-81
2022/03/29 07:43:56;;;;;;;33.13;18.20;;;;;;;;;;5038595;28;20095;-81
2022/03/29 07:46:22;;;;;;;32.40;18.13;;;;;;;;;;5039206;28;20079;-81
2022/03/29 07:48:49;;;;;;;31.92;17.83;;;;;;;;;;5016379;28;20060;-82
2022/03/29 07:51:16;;;;;;;29.17;16.73;;;;;;;;;;5027526;28;20049;-81
2022/03/29 07:53:42;;;;;;;27.92;16.23;;;;;;;;;;5031628;28;20413;-82
2022/03/29 07:56:07;;;;;;;30.23;16.95;;;;;;;;;;5023839;28;20116;-81
2022/03/29 07:58:33;;;;;;;33.28;16.30;;;;;;;;;;5019251;28;20466;-82
2022/03/29 08:01:00;;;;;;;29.70;16.30;;;;;;;;;;5013160;28;20037;-82
2022/03/29 08:03:32;;;;;;;29.55;16.13;;;;;;;;;;5030389;28;20139;-82
2022/03/29 08:05:57;;;;;;;33.30;17.70;;;;;;;;;;5029939;28;20047;-81
2022/03/29 08:08:23;;;;;;;30.90;16.48;;;;;;;;;;5021957;28;20444;-82
2022/03/29 08:10:49;;;;;;;24.83;15.05;;;;;;;;;;5021810;28;20056;-81
2022/03/29 08:13:15;;;;;;;25.02;14.55;;;;;;;;;;5017827;28;20098;-83
2022/03/29 08:15:44;;;;;;;30.77;14.95;;;;;;;;;;5006097;28;20076;-81
2022/03/29 08:18:10;;;;;;;26.63;14.68;;;;;;;;;;5017274;28;20041;-81
2022/03/29 08:20:36;;;;;;;26.48;15.80;;;;;;;;;;5034884;28;20116;-83
2022/03/29 08:23:02;;;;;;;27.60;14.95;;;;;;;;;;5009908;28;20051;-82
2022/03/29 08:25:31;;;;;;;28.42;16.25;;;;;;;;;;5025189;28;20033;-80
2022/03/29 08:27:58;;;;;;;25.50;15.98;;;;;;;;;;5041752;28;20064;-81
2022/03/29 08:30:24;;;;;;;25.30;15.43;;;;;;;;;;5029106;28;20048;-81
2022/03/29 08:32:50;;;;;;;28.95;16.88;;;;;;;;;;5025217;28;20051;-81
2022/03/29 08:35:16;;;;;;;30.52;17.02;;;;;;;;;;5030867;28;20072;-81
2022/03/29 08:37:42;;;;;;;32.85;17.23;;;;;;;;;;5035940;28;20095;-81
2022/03/29 08:40:13;;;;;;;27.85;15.10;;;;;;;;;;5030246;28;20075;-81
2022/03/29 08:42:43;;;;;;;29.10;16.45;;;;;;;;;;5027746;28;20127;-82
2022/03/29 08:45:11;;;;;;;24.42;15.57;;;;;;;;;;5027129;28;20072;-81
2022/03/29 08:47:37;;;;;;;23.50;15.20;;;;;;;;;;5028330;28;20106;-81
2022/03/29 08:50:05;;;;;;;24.48;15.70;;;;;;;;;;5031400;28;20032;-81
2022/03/29 08:52:32;;;;;;;29.45;15.48;;;;;;;;;;5042887;28;20386;-81
2022/03/29 08:54:58;;;;;;;26.00;14.70;;;;;;;;;;5028684;28;20043;-81
2022/03/29 08:57:23;;;;;;;27.52;16.45;;;;;;;;;;5024492;28;20067;-81
2022/03/29 08:59:49;;;;;;;28.63;15.05;;;;;;;;;;5022961;28;20589;-81
2022/03/29 09:02:16;;;;;;;29.52;15.40;;;;;;;;;;5022812;28;20593;-81
2022/03/29 09:04:43;;;;;;;25.55;16.25;;;;;;;;;;5047925;28;20147;-81
2022/03/29 09:07:09;;;;;;;25.70;14.32;;;;;;;;;;5044968;28;20032;-81
2022/03/29 09:09:38;;;;;;;24.80;14.75;;;;;;;;;;5048679;28;20070;-82
2022/03/29 09:12:13;;;;;;;25.73;15.30;;;;;;;;;;5029233;28;20454;-82
2022/03/29 09:15:00;;;;;;;24.38;14.93;;;;;;;;;;5045360;28;20043;-81
2022/03/29 09:17:32;;;;;;;28.45;15.45;;;;;;;;;;5028523;28;20054;-82
2022/03/29 09:20:00;;;;;;;25.13;15.23;;;;;;;;;;5024442;28;20149;-81
2022/03/29 09:22:35;;;;;;;24.73;14.18;;;;;;;;;;5030326;28;20147;-82
2022/03/29 09:25:02;;;;;;;26.00;15.90;;;;;;;;;;5048922;28;20048;-81
2022/03/29 09:27:28;;;;;;;25.67;16.55;;;;;;;;;;5049054;28;20037;-82
2022/03/29 09:30:11;;;;;;;23.92;16.60;;;;;;;;;;5033337;28;20090;-81
2022/03/29 09:32:52;;;;;;;32.97;17.08;;;;;;;;;;5010025;28;20107;-83
2022/03/29 09:35:19;;;;;;;25.63;17.38;;;;;;;;;;5032775;28;20373;-82
2022/03/29 09:37:45;;;;;;;31.17;19.48;;;;;;;;;;5033619;28;20040;-82
2022/03/29 09:40:12;;;;;;;26.08;16.90;;;;;;;;;;5032475;28;20045;-83
2022/03/29 09:42:39;;;;;;;26.33;16.35;;;;;;;;;;5021414;28;20037;-82
2022/03/29 09:45:05;;;;;;;27.70;16.08;;;;;;;;;;5024553;28;20529;-82
2022/03/29 09:47:31;;;;;;;24.27;15.65;;;;;;;;;;5026215;28;20036;-82
2022/03/29 09:49:58;;;;;;;23.20;15.02;;;;;;;;;;5033698;28;20044;-85
2022/03/29 09:52:30;;;;;;;22.70;13.95;;;;;;;;;;5047669;28;20516;-81
2022/03/29 09:55:13;;;;;;;21.08;12.80;;;;;;;;;;5038794;28;20462;-82
2022/03/29 09:57:51;;;;;;;22.65;13.95;;;;;;;;;;5036868;28;20117;-82
2022/03/29 10:00:38;;;;;;;21.45;13.93;;;;;;;;;;5042893;28;20048;-81
2022/03/29 10:03:07;;;;;;;21.90;13.30;;;;;;;;;;5044962;28;20036;-80
2022/03/29 10:05:34;;;;;;;19.98;13.55;;;;;;;;;;5037900;28;20387;-80
2022/03/29 10:10:50;;;;;;;20.83;13.73;;;;;;;;;;5051775;28;20624;-79
2022/03/29 10:13:23;;;;;;;23.13;14.65;;;;;;;;;;5067273;28;20040;-80
2022/03/29 10:15:50;;;;;;;23.63;16.05;;;;;;;;;;5051619;28;20036;-79
2022/03/29 10:18:16;;;;;;;18.55;14.80;;;;;;;;;;5049199;28;20545;-80
2022/03/29 10:20:44;;;;;;;25.13;18.73;;;;;;;;;;5017326;28;20119;-80
2022/03/29 10:23:14;;;;;;;24.88;17.88;;;;;;;;;;5050134;28;20041;-81
2022/03/29 10:25:41;;;;;;;24.58;17.38;;;;;;;;;;5039969;28;20036;-80
2022/03/29 10:28:07;;;;;;;23.83;17.48;;;;;;;;;;5015920;28;20045;-81
2022/03/29 10:30:36;;;;;;;20.65;15.30;;;;;;;;;;5042424;28;20040;-81
2022/03/29 10:33:28;;;;;;;19.55;15.35;;;;;;;;;;5031093;28;20052;-80
2022/03/29 10:35:59;;;;;;;22.90;15.38;;;;;;;;;;5026798;28;20045;-80
2022/03/29 10:38:53;;;;;;;20.30;15.93;;;;;;;;;;5063690;28;20144;-81
2022/03/29 10:41:28;;;;;;;22.73;17.48;;;;;;;;;;5063103;28;20041;-80
2022/03/29 10:43:55;;;;;;;23.88;17.95;;;;;;;;;;5026137;28;20467;-80
2022/03/29 10:46:25;;;;;;;22.52;17.55;;;;;;;;;;5032848;28;20135;-80
2022/03/29 10:49:20;;;;;;;18.52;15.82;;;;;;;;;;5028526;28;20038;-80
2022/03/29 10:51:47;;;;;;;19.85;15.52;;;;;;;;;;5053233;28;20052;-80
2022/03/29 10:54:29;;;;;;;21.73;15.43;;;;;;;;;;5040388;28;20040;-81
2022/03/29 10:57:03;;;;;;;23.00;15.95;;;;;;;;;;5049425;28;20044;-81
2022/03/29 10:59:30;;;;;;;20.75;15.80;;;;;;;;;;5046039;28;20040;-81
2022/03/29 11:02:19;;;;;;;22.30;17.38;;;;;;;;;;5028496;28;20057;-84
2022/03/29 11:05:09;;;;;;;24.50;16.50;;;;;;;;;;5044603;28;20062;-84
2022/03/29 11:07:35;;;;;;;20.77;16.55;;;;;;;;;;5035326;28;20523;-84
2022/03/29 11:10:23;;;;;;;21.55;14.30;;;;;;;;;;5048612;28;20045;-84
2022/03/29 11:12:49;;;;;;;21.23;13.95;;;;;;;;;;5040663;28;20041;-84
2022/03/29 11:15:24;;;;;;;17.38;13.35;;;;;;;;;;5019343;28;20102;-82
2022/03/29 11:17:56;;;;;;;19.17;14.95;;;;;;;;;;5047765;28;20048;-81
2022/03/29 11:20:36;;;;;;;19.10;16.10;;;;;;;;;;5051487;28;20044;-82
2022/03/29 11:23:06;;;;;;;21.10;17.42;;;;;;;;;;5021934;28;20120;-82
2022/03/29 11:25:39;;;;;;;22.80;16.02;;;;;;;;;;5032791;28;20045;-81
2022/03/29 11:28:06;;;;;;;17.95;14.15;;;;;;;;;;5028666;28;20048;-82
2022/03/29 11:30:34;;;;;;;21.50;14.30;;;;;;;;;;5028412;28;20068;-82
2022/03/29 11:33:01;;;;;;;19.30;13.93;;;;;;;;;;5028923;28;20044;-82
2022/03/29 11:35:27;;;;;;;19.20;14.15;;;;;;;;;;5044381;28;20136;-82
2022/03/29 11:37:53;;;;;;;16.38;13.00;;;;;;;;;;5019128;28;20045;-82
2022/03/29 11:40:19;;;;;;;23.10;14.32;;;;;;;;;;5018917;28;20049;-82
2022/03/29 11:42:49;;;;;;;19.55;14.27;;;;;;;;;;5019927;28;20507;-81
2022/03/29 11:45:18;;;;;;;16.65;13.25;;;;;;;;;;5035786;28;20114;-81
2022/03/29 11:47:55;;;;;;;16.50;12.70;;;;;;;;;;5019878;28;20059;-80
2022/03/29 11:50:32;;;;;;;18.55;14.30;;;;;;;;;;5032079;28;20067;-81
2022/03/29 11:52:58;;;;;;;14.48;12.85;;;;;;;;;;5040789;28;20080;-84
2022/03/29 11:55:25;;;;;;;19.98;13.88;;;;;;;;;;5048970;28;20056;-81
2022/03/29 11:57:51;;;;;;;16.27;13.57;;;;;;;;;;5023829;28;20049;-82
2022/03/29 12:00:25;;;;;;;16.80;11.88;;;;;;;;;;5015310;28;20049;-81
2022/03/29 12:02:52;;;;;;;17.55;13.32;;;;;;;;;;5013854;28;20037;-81
2022/03/29 12:05:21;;;;;;;22.75;12.45;;;;;;;;;;5011455;28;20124;-81
2022/03/29 12:07:47;;;;;;;17.83;12.55;;;;;;;;;;5040330;28;20060;-83
2022/03/29 12:10:15;;;;;;;15.93;12.07;;;;;;;;;;5030810;28;20390;-83
2022/03/29 12:12:40;;;;;;;15.13;11.68;;;;;;;;;;5047077;28;20041;-81
2022/03/29 12:15:08;;;;;;;17.02;11.68;;;;;;;;;;5027977;28;20331;-81
2022/03/29 12:17:39;;;;;;;14.48;11.90;;;;;;;;;;5029305;28;20064;-81
2022/03/29 12:20:05;;;;;;;16.95;13.20;;;;;;;;;;5032234;28;20306;-81
2022/03/29 12:22:31;;;;;;;18.67;13.25;;;;;;;;;;5045610;28;20052;-83
2022/03/29 12:24:57;;;;;;;15.13;11.90;;;;;;;;;;5048412;28;20037;-83
2022/03/29 12:27:23;;;;;;;16.60;12.88;;;;;;;;;;5038810;28;20670;-83
2022/03/29 12:29:56;;;;;;;16.73;12.02;;;;;;;;;;5052883;28;20047;-83
2022/03/29 12:32:22;;;;;;;13.63;11.18;;;;;;;;;;5019648;28;20397;-83
2022/03/29 12:34:56;;;;;;;17.80;11.95;;;;;;;;;;5037581;28;20044;-83
2022/03/29 12:37:23;;;;;;;15.15;12.00;;;;;;;;;;5064484;28;20664;-83
2022/03/29 12:39:54;;;;;;;21.27;12.73;;;;;;;;;;5033223;28;20048;-83
2022/03/29 12:42:20;;;;;;;18.33;13.32;;;;;;;;;;5032519;28;20066;-83
2022/03/29 12:44:56;;;;;;;19.35;12.45;;;;;;;;;;5015867;28;20405;-82
2022/03/29 12:47:23;;;;;;;17.02;12.23;;;;;;;;;;5046573;28;20048;-83
2022/03/29 12:49:51;;;;;;;20.58;12.90;;;;;;;;;;5045213;28;20155;-83
2022/03/29 12:52:18;;;;;;;18.85;11.82;;;;;;;;;;5023238;28;20053;-83
2022/03/29 12:54:52;;;;;;;18.23;12.07;;;;;;;;;;5041286;28;20044;-83
2022/03/29 12:57:21;;;;;;;13.82;11.57;;;;;;;;;;5026328;28;20052;-83
2022/03/29 12:59:47;;;;;;;17.92;12.32;;;;;;;;;;5030204;28;20040;-83
2022/03/29 13:02:20;;;;;;;16.75;11.55;;;;;;;;;;5043722;28;20057;-83
2022/03/29 13:05:01;;;;;;;14.45;10.85;;;;;;;;;;5044937;28;20097;-83
2022/03/29 13:07:41;;;;;;;20.63;11.88;;;;;;;;;;5029640;28;20375;-83
2022/03/29 13:10:26;;;;;;;12.98;10.45;;;;;;;;;;5040734;28;20058;-83
2022/03/29 13:13:05;;;;;;;17.25;10.60;;;;;;;;;;5038267;28;20102;-83
2022/03/29 13:15:51;;;;;;;15.25;11.60;;;;;;;;;;5059184;28;20323;-83
2022/03/29 13:18:28;;;;;;;14.85;11.93;;;;;;;;;;5046723;28;20071;-83
2022/03/29 13:21:19;;;;;;;16.70;11.63;;;;;;;;;;5024982;28;20132;-83
2022/03/29 13:23:48;;;;;;;16.98;10.75;;;;;;;;;;5021554;28;20563;-80
2022/03/29 13:26:16;;;;;;;17.45;12.38;;;;;;;;;;5026081;28;20041;-83
2022/03/29 13:28:42;;;;;;;15.93;11.18;;;;;;;;;;5042885;28;20036;-82
2022/03/29 13:31:13;;;;;;;14.55;11.27;;;;;;;;;;5023406;28;20047;-81
2022/03/29 13:33:39;;;;;;;15.65;11.10;;;;;;;;;;5021213;28;20120;-83
2022/03/29 13:36:07;;;;;;;19.02;11.00;;;;;;;;;;5028145;28;20036;-81
2022/03/29 13:38:33;;;;;;;16.35;11.10;;;;;;;;;;5031835;28;20037;-81
2022/03/29 13:40:59;;;;;;;15.02;10.23;;;;;;;;;;5028864;28;20295;-83
2022/03/29 13:43:25;;;;;;;14.90;10.63;;;;;;;;;;5031158;28;20540;-83
2022/03/29 13:45:51;;;;;;;17.55;10.75;;;;;;;;;;5028434;28;20040;-83
2022/03/29 13:48:16;;;;;;;14.85;10.27;;;;;;;;;;5048097;28;20072;-83
2022/03/29 13:50:42;;;;;;;16.42;10.85;;;;;;;;;;5034023;28;20045;-83
2022/03/29 13:53:11;;;;;;;12.65;9.75;;;;;;;;;;5042971;28;20044;-82
2022/03/29 13:55:37;;;;;;;14.40;9.15;;;;;;;;;;5048242;28;20029;-84
2022/03/29 13:58:05;;;;;;;12.45;10.35;;;;;;;;;;5030948;28;20047;-83
2022/03/29 14:00:35;;;;;;;15.88;9.70;;;;;;;;;;5023959;28;20080;-82
2022/03/29 14:03:01;;;;;;;14.65;10.10;;;;;;;;;;5011476;28;20037;-81
2022/03/29 14:05:28;;;;;;;16.67;10.32;;;;;;;;;;5015250;28;20068;-82
2022/03/29 14:07:55;;;;;;;14.93;10.45;;;;;;;;;;5047863;28;20041;-83
2022/03/29 14:10:21;;;;;;;13.98;9.82;;;;;;;;;;5033888;28;20041;-83
2022/03/29 14:12:47;;;;;;;15.05;10.65;;;;;;;;;;5015207;28;20037;-81
2022/03/29 14:15:12;;;;;;;15.02;10.48;;;;;;;;;;5026068;28;20053;-82
2022/03/29 14:17:38;;;;;;;14.05;10.10;;;;;;;;;;5030126;28;20068;-82
2022/03/29 14:20:05;;;;;;;19.77;10.27;;;;;;;;;;5022871;28;20057;-80
2022/03/29 14:22:32;;;;;;;14.05;9.68;;;;;;;;;;5016499;28;20402;-81
2022/03/29 14:24:59;;;;;;;17.15;10.32;;;;;;;;;;5029293;28;20525;-81
2022/03/29 14:27:25;;;;;;;12.48;10.07;;;;;;;;;;5029626;28;20110;-81
2022/03/29 14:29:51;;;;;;;16.02;10.15;;;;;;;;;;5020207;28;20067;-81
2022/03/29 14:32:17;;;;;;;13.25;9.40;;;;;;;;;;5017325;28;20044;-79